Time;durP1;ratioP1;P1;durP2;ratioP2;P2;SDS_P1;SDS_P2;PMS_P1;PMS_P2;Temp;Humidity;BMP_temperature;BMP_pressure;BME280_temperature;BME280_humidity;BME280_pressure;Samples;Min_cycle;Max_cycle;Signal;HPM_P1;HPM_P2
2022/08/28 00:02:58;;;;;;;4.8;9.4;;;;;;;19.1;100;98170;;;;
2022/08/28 00:13:59;;;;;;;4.8;9.4;;;;;;;19.1;100;98180;;;;
2022/08/28 00:24:58;;;;;;;4.8;9.4;;;;;;;19;100;98180;;;;
2022/08/28 00:35:00;;;;;;;5.3;9.8;;;;;;;18.8;100;98160;;;;
2022/08/28 00:44:59;;;;;;;5.3;9.8;;;;;;;18.9;100;98160;;;;
2022/08/28 00:55:58;;;;;;;6.1;9.3;;;;;;;19;100;98160;;;;
2022/08/28 01:05:58;;;;;;;6.1;9.3;;;;;;;19;100;98160;;;;
2022/08/28 01:16:58;;;;;;;6.1;9.3;;;;;;;18.8;100;98160;;;;
2022/08/28 01:26:58;;;;;;;6.2;10.5;;;;;;;18.8;100;98160;;;;
2022/08/28 01:37:58;;;;;;;6.2;10.5;;;;;;;19;100;98150;;;;
2022/08/28 01:48:59;;;;;;;6.2;10.5;;;;;;;19;100;98160;;;;
2022/08/28 01:59:58;;;;;;;6.5;12.2;;;;;;;19;100;98180;;;;
2022/08/28 02:09:58;;;;;;;6.5;12.2;;;;;;;18.9;100;98170;;;;
2022/08/28 02:20:58;;;;;;;6.5;12.2;;;;;;;18.9;100;98180;;;;
2022/08/28 02:31:58;;;;;;;6.5;10.6;;;;;;;18.8;100;98190;;;;
2022/08/28 02:41:58;;;;;;;6.5;10.6;;;;;;;18.7;100;98180;;;;
2022/08/28 02:52:58;;;;;;;6.5;10.6;;;;;;;18.6;100;98180;;;;
2022/08/28 03:02:58;;;;;;;5.9;9.7;;;;;;;18.5;100;98180;;;;
2022/08/28 03:12:58;;;;;;;5.9;9.7;;;;;;;18.3;100;98190;;;;
2022/08/28 03:23:59;;;;;;;5.9;9.7;;;;;;;18.1;100;98200;;;;
2022/08/28 03:34:58;;;;;;;7.3;12.2;;;;;;;17.8;100;98200;;;;
2022/08/28 03:45:58;;;;;;;7.3;12.2;;;;;;;17.7;100;98220;;;;
2022/08/28 03:55:58;;;;;;;9;14.3;;;;;;;17.7;100;98230;;;;
2022/08/28 04:05:58;;;;;;;9;14.3;;;;;;;17.8;100;98240;;;;
2022/08/28 04:16:58;;;;;;;9;14.3;;;;;;;18;100;98250;;;;
2022/08/28 04:27:59;;;;;;;7.8;11.7;;;;;;;18.1;100;98260;;;;
2022/08/28 04:38:58;;;;;;;7.8;11.7;;;;;;;18.8;100;98260;;;;
2022/08/28 04:48:59;;;;;;;7.8;11.7;;;;;;;19.1;100;98260;;;;
2022/08/28 04:59:58;;;;;;;7.5;13.9;;;;;;;19.4;100;98260;;;;
2022/08/28 05:09:58;;;;;;;7.5;13.9;;;;;;;19.3;100;98260;;;;
2022/08/28 05:20:59;;;;;;;7.5;13.9;;;;;;;18.9;100;98270;;;;
2022/08/28 05:31:58;;;;;;;7;12;;;;;;;19.2;100;98270;;;;
2022/08/28 05:41:58;;;;;;;7;12;;;;;;;19.4;100;98260;;;;
2022/08/28 05:51:59;;;;;;;7;12;;;;;;;19.2;100;98280;;;;
2022/08/28 06:02:58;;;;;;;5.6;10;;;;;;;19.6;100;98260;;;;
2022/08/28 06:12:59;;;;;;;5.6;10;;;;;;;20.1;100;98250;;;;
2022/08/28 06:22:59;;;;;;;5.6;10;;;;;;;20.9;100;98250;;;;
2022/08/28 06:33:59;;;;;;;5.4;8.5;;;;;;;21.6;100;98250;;;;
2022/08/28 06:43:58;;;;;;;5.4;8.5;;;;;;;21.9;100;98250;;;;
2022/08/28 06:54:58;;;;;;;5.4;8.5;;;;;;;22.5;100;98260;;;;
2022/08/28 07:05:58;;;;;;;6;12.2;;;;;;;22.8;100;98250;;;;
2022/08/28 07:15:59;;;;;;;6;12.2;;;;;;;23;100;98250;;;;
2022/08/28 07:26:58;;;;;;;5;8.2;;;;;;;23.6;100;98260;;;;
2022/08/28 07:37:02;;;;;;;5;8.2;;;;;;;23.2;100;98260;;;;
2022/08/28 07:46:59;;;;;;;5;8.2;;;;;;;23.7;100;98250;;;;
2022/08/28 07:57:59;;;;;;;4.9;10.1;;;;;;;24.5;100;98260;;;;
2022/08/28 08:07:59;;;;;;;4.9;10.1;;;;;;;24.7;100;98260;;;;
2022/08/28 08:18:59;;;;;;;4.9;10.1;;;;;;;25;100;98250;;;;
2022/08/28 08:29:58;;;;;;;5.1;10.1;;;;;;;25.4;100;98270;;;;
2022/08/28 08:39:58;;;;;;;5.1;10.1;;;;;;;25.1;100;98280;;;;
2022/08/28 08:50:58;;;;;;;5.1;10.1;;;;;;;25.7;100;98280;;;;
2022/08/28 09:02:00;;;;;;;4.7;7.9;;;;;;;26.4;100;98290;;;;
2022/08/28 09:12:59;;;;;;;4.7;7.9;;;;;;;26.4;100;98310;;;;
2022/08/28 09:22:58;;;;;;;4.7;7.9;;;;;;;26.8;100;98310;;;;
2022/08/28 09:34:00;;;;;;;4.1;8.3;;;;;;;26.9;100;98320;;;;
2022/08/28 09:44:59;;;;;;;4.1;8.3;;;;;;;26.7;100;98320;;;;
2022/08/28 09:54:58;;;;;;;4.1;8.3;;;;;;;26.8;100;98310;;;;
2022/08/28 10:05:59;;;;;;;3.6;7.5;;;;;;;26.7;100;98310;;;;
2022/08/28 10:16:59;;;;;;;3.6;7.5;;;;;;;26.3;100;98310;;;;
2022/08/28 10:26:59;;;;;;;4.2;9.7;;;;;;;26.3;100;98310;;;;
2022/08/28 10:37:59;;;;;;;4.2;9.7;;;;;;;25.9;100;98320;;;;
2022/08/28 10:47:59;;;;;;;4.2;9.7;;;;;;;25.6;100;98310;;;;
2022/08/28 10:58:59;;;;;;;4.2;8.6;;;;;;;25.5;100;98310;;;;
2022/08/28 11:08:59;;;;;;;4.2;8.6;;;;;;;26.4;100;98310;;;;
2022/08/28 11:19:59;;;;;;;4.2;8.6;;;;;;;26.6;100;98310;;;;
2022/08/28 11:30:00;;;;;;;4.4;8.4;;;;;;;26.1;100;98310;;;;
2022/08/28 11:40:59;;;;;;;4.4;8.4;;;;;;;26.7;100;98300;;;;
2022/08/28 11:51:01;;;;;;;4.4;8.4;;;;;;;27.2;100;98300;;;;
2022/08/28 12:01:59;;;;;;;4.2;7.3;;;;;;;27.6;100;98300;;;;
2022/08/28 12:12:59;;;;;;;4.2;7.3;;;;;;;28.5;100;98290;;;;
2022/08/28 12:23:59;;;;;;;4.2;7.3;;;;;;;28.7;100;98290;;;;
2022/08/28 12:33:59;;;;;;;4.1;8.1;;;;;;;29.4;100;98280;;;;
2022/08/28 12:44:59;;;;;;;4.1;8.1;;;;;;;29.4;100;98290;;;;
2022/08/28 12:54:59;;;;;;;4.1;8.1;;;;;;;29.2;100;98280;;;;
2022/08/28 13:05:59;;;;;;;3.2;6.4;;;;;;;28.8;100;98270;;;;
2022/08/28 13:16:00;;;;;;;3.2;6.4;;;;;;;29.3;100;98260;;;;
2022/08/28 13:26:00;;;;;;;3.2;6.4;;;;;;;28.7;100;98250;;;;
2022/08/28 13:35:59;;;;;;;3.5;7.2;;;;;;;27.1;100;98260;;;;
2022/08/28 13:46:59;;;;;;;3.5;7.2;;;;;;;26.9;100;98250;;;;
2022/08/28 13:56:59;;;;;;;4.4;9.3;;;;;;;26.8;100;98240;;;;
2022/08/28 14:07:59;;;;;;;4.4;9.3;;;;;;;26.4;100;98240;;;;
2022/08/28 14:17:59;;;;;;;4.4;9.3;;;;;;;26.5;100;98260;;;;
2022/08/28 14:28:59;;;;;;;3.9;8.1;;;;;;;26.1;100;98260;;;;
2022/08/28 14:38:59;;;;;;;3.9;8.1;;;;;;;26.1;100;98260;;;;
2022/08/28 14:48:59;;;;;;;3.9;8.1;;;;;;;26.4;100;98280;;;;
2022/08/28 14:59:59;;;;;;;4.8;8.3;;;;;;;26.1;100;98280;;;;
2022/08/28 15:09:59;;;;;;;4.8;8.3;;;;;;;25.7;100;98290;;;;
2022/08/28 15:19:59;;;;;;;4.8;8.3;;;;;;;25.9;100;98300;;;;
2022/08/28 15:30:59;;;;;;;6.1;10.7;;;;;;;24.6;100;98330;;;;
2022/08/28 15:41:59;;;;;;;6.1;10.7;;;;;;;23.4;100;98350;;;;
2022/08/28 15:51:59;;;;;;;6.1;10.7;;;;;;;22.4;100;98350;;;;
2022/08/28 16:02:00;;;;;;;5.5;9.4;;;;;;;21.8;100;98360;;;;
2022/08/28 16:12:59;;;;;;;5.5;9.4;;;;;;;21.5;100;98370;;;;
2022/08/28 16:22:59;;;;;;;5.5;9.4;;;;;;;21.3;100;98370;;;;
2022/08/28 16:33:59;;;;;;;4.9;8.6;;;;;;;21;100;98370;;;;
2022/08/28 16:43:59;;;;;;;4.9;8.6;;;;;;;21;100;98370;;;;
2022/08/28 16:54:59;;;;;;;4.9;8.6;;;;;;;20.7;100;98360;;;;
2022/08/28 17:05:59;;;;;;;5.4;9.4;;;;;;;20.4;100;98360;;;;
2022/08/28 17:15:59;;;;;;;5.4;9.4;;;;;;;20.5;100;98350;;;;
2022/08/28 17:25:59;;;;;;;5.4;9.4;;;;;;;20.3;100;98360;;;;
2022/08/28 17:36:59;;;;;;;4.2;7.7;;;;;;;20.2;100;98370;;;;
2022/08/28 17:46:59;;;;;;;4.2;7.7;;;;;;;20.1;100;98370;;;;
2022/08/28 17:56:59;;;;;;;4;6.4;;;;;;;20;100;98380;;;;
2022/08/28 18:07:59;;;;;;;4;6.4;;;;;;;19.9;100;98400;;;;
2022/08/28 18:17:59;;;;;;;4;6.4;;;;;;;19.9;100;98410;;;;
2022/08/28 18:28:59;;;;;;;4.1;6.1;;;;;;;19.8;100;98430;;;;
2022/08/28 18:39:59;;;;;;;4.1;6.1;;;;;;;19.7;100;98420;;;;
2022/08/28 18:50:59;;;;;;;4.1;6.1;;;;;;;19.7;100;98430;;;;
2022/08/28 19:01:59;;;;;;;3.9;7.9;;;;;;;19.4;100;98430;;;;
2022/08/28 19:12:59;;;;;;;3.9;7.9;;;;;;;19.7;100;98440;;;;
2022/08/28 19:22:59;;;;;;;3.9;7.9;;;;;;;19.7;100;98450;;;;
2022/08/28 19:32:59;;;;;;;4.5;6.9;;;;;;;19.8;100;98450;;;;
2022/08/28 19:43:59;;;;;;;4.5;6.9;;;;;;;19.9;100;98460;;;;
2022/08/28 19:53:59;;;;;;;4.5;6.9;;;;;;;19.6;100;98450;;;;
2022/08/28 20:04:59;;;;;;;3.6;6.4;;;;;;;19.7;100;98460;;;;
2022/08/28 20:15:59;;;;;;;3.6;6.4;;;;;;;19.4;100;98460;;;;
2022/08/28 20:25:59;;;;;;;3.6;6.4;;;;;;;19.4;100;98460;;;;
2022/08/28 20:36:59;;;;;;;4.5;8.7;;;;;;;19.5;100;98470;;;;
2022/08/28 20:47:59;;;;;;;4.5;8.7;;;;;;;19.5;100;98470;;;;
2022/08/28 20:58:59;;;;;;;4.7;6.7;;;;;;;19.6;100;98470;;;;
2022/08/28 21:08:59;;;;;;;4.7;6.7;;;;;;;19.9;100;98480;;;;
2022/08/28 21:18:59;;;;;;;4.7;6.7;;;;;;;19.9;100;98480;;;;
2022/08/28 21:29:59;;;;;;;5.6;7.6;;;;;;;19.9;100;98480;;;;
2022/08/28 21:40:59;;;;;;;5.6;7.6;;;;;;;19.6;100;98490;;;;
2022/08/28 21:50:59;;;;;;;5.6;7.6;;;;;;;19.6;100;98500;;;;
2022/08/28 22:01:59;;;;;;;9;13;;;;;;;19.6;100;98490;;;;
2022/08/28 22:11:59;;;;;;;9;13;;;;;;;19.6;100;98490;;;;
2022/08/28 22:32:59;;;;;;;9.4;12.8;;;;;;;19.6;100;98510;;;;
2022/08/28 22:42:59;;;;;;;9.4;12.8;;;;;;;19.5;100;98520;;;;
2022/08/28 22:52:59;;;;;;;9.4;12.8;;;;;;;19.5;100;98530;;;;
2022/08/28 23:02:59;;;;;;;9.1;12.1;;;;;;;19.3;100;98540;;;;
2022/08/28 23:13:59;;;;;;;9.1;12.1;;;;;;;19.1;100;98540;;;;
2022/08/28 23:23:59;;;;;;;9.1;12.1;;;;;;;19;100;98520;;;;
2022/08/28 23:34:59;;;;;;;7.5;10.5;;;;;;;18.9;100;98530;;;;
2022/08/28 23:45:59;;;;;;;7.5;10.5;;;;;;;19;100;98530;;;;
2022/08/28 23:55:59;;;;;;;7.5;10.5;;;;;;;18.7;100;98540;;;;
